Flight Track Log - Related Links

Times and Time Zones

All times are in EDT time to prevent confusion due to time zone crossing. See the UPS378 flight status page for this flight to view local times or setup timezone preferences in your user account.


Time Position Orientation Groundspeed Altitude Reporting Facility
EDT Latitude Longitude Course Direction KTS MPH feet Rate Location/Type
Thu 09:00:28 AM 25.8060 -80.3020 87° East 9 10  Level FlightAware ADS-B
Thu 09:01:30 AM 25.8060 -80.3030 270° West 2 2 161 Level FlightAware ADS-B
Thu 09:03:02 AM 25.8050 -80.3030 180° South 10 12 182 Level FlightAware ADS-B
Thu 09:05:00 AM 25.6611 -80.1959 214° Southwest  Level FlightAware Approximate
Thu 09:06:00 AM 25.5606 -80.2517 209° Southwest  Level FlightAware Approximate
Thu 09:07:00 AM 25.4608 -80.3141 209° Southwest  Level FlightAware Approximate
Thu 09:08:00 AM 25.3611 -80.3764 209° Southwest  Level FlightAware Approximate
Thu 09:08:03 AM 25.8030 -80.3010 209° Southwest 22 25  Level FlightAware ADS-B
Thu 09:08:30 AM 25.8030 -80.2970 90° East 86 99 1,235 Level FlightAware ADS-B
Thu 09:09:11 AM 25.8020 -80.2680 92° East 149 171 1,400 1,478 Climbing FlightAware ADS-B
Thu 09:09:39 AM 25.7930 -80.2450 113° Southeast 187 215 1,700 1,368 Climbing FlightAware ADS-B
Thu 09:10:08 AM 25.7820 -80.2190 115° Southeast 219 252 2,700 2,222 Climbing FlightAware ADS-B
Thu 09:10:33 AM 25.7680 -80.1900 118° Southeast 250 288 3,700 3,070 Climbing FlightAware ADS-B
Thu 09:10:51 AM 25.7560 -80.1720 127° Southeast 246 283 4,900 1,971 Climbing FlightAware ADS-B
Thu 09:11:43 AM 25.7280 -80.1610 161° South 258 297 6,000 2,854 Climbing FlightAware ADS-B
Thu 09:12:13 AM 25.6620 -80.1850 198° South 285 328 8,800 3,500 Climbing FlightAware ADS-B
Thu 09:12:43 AM 25.6470 -80.1920 203° Southwest 288 331 9,500 2,055 Climbing FlightAware ADS-B
Thu 09:13:26 AM 25.5750 -80.2290 205° Southwest 342 394 11,300 1,979 Climbing FlightAware ADS-B
Thu 09:14:17 AM 25.4933 -80.2706 205° Southwest 325 374 12,600 1,385 Climbing Miami Center
Thu 09:19:43 AM 25.1430 -80.4850 205° Southwest 429 494 20,000 1,200 Climbing FlightAware ADS-B
Thu 09:20:27 AM 25.0790 -80.5270 211° Southwest 429 494 20,000  Level FlightAware ADS-B
Thu 09:21:02 AM 25.0280 -80.5610 211° Southwest 429 494 20,000  Level FlightAware ADS-B
Thu 09:22:03 AM 24.9400 -80.6190 211° Southwest 429 494 20,000 1,129 Level FlightAware ADS-B
Thu 09:22:43 AM 25.0750 -80.5280 31° Northeast 453 521 21,900 1,481 Climbing FlightAware ADS-B
Thu 09:23:20 AM 25.0180 -80.5650 210° Southwest 453 521 21,900 2,000 Level FlightAware ADS-B
Thu 09:24:07 AM 24.8440 -80.6790 211° Southwest 470 541 24,700 1,976 Climbing FlightAware ADS-B
Thu 09:24:45 AM 24.7830 -80.7190 211° Southwest 470 541 24,700  Level FlightAware ADS-B
Thu 09:27:03 AM 24.5650 -80.8630 211° Southwest 470 541 24,700 2,400 Level FlightAware ADS-B
Thu 09:28:25 AM 24.1270 -81.1380 210° Southwest 488 562 33,500 4,125 Climbing FlightAware ADS-B
Thu 09:29:11 AM 24.0500 -81.1860 210° Southwest 488 562 33,500  Level FlightAware ADS-B
Thu 09:29:59 AM 23.9710 -81.2360 210° Southwest 488 562 33,500  Level FlightAware ADS-B
Thu 09:30:38 AM 23.9060 -81.2770 210° Southwest 488 562 33,500  Level FlightAware ADS-B
Thu 09:31:27 AM 23.8240 -81.3290 210° Southwest 488 562 33,500  Level FlightAware ADS-B
Thu 09:32:04 AM 23.7630 -81.3680 210° Southwest 488 562 33,500  Level FlightAware ADS-B
Thu 09:32:52 AM 23.6830 -81.4180 210° Southwest 488 562 33,500  Level FlightAware ADS-B
Thu 09:33:38 AM 23.6070 -81.4660 210° Southwest 488 562 33,500  Level FlightAware ADS-B
Thu 09:34:14 AM 23.5470 -81.5040 210° Southwest 488 562 33,500  Level FlightAware ADS-B
Thu 09:35:15 AM 23.4450 -81.5680 210° Southwest 488 562 33,500 83 Level FlightAware ADS-B
Thu 09:37:00 AM 23.2794 -81.7060 217° Southwest  Level FlightAware Approximate
Thu 09:38:00 AM 23.1847 -81.7848 217° Southwest  Level FlightAware Approximate
Thu 09:39:00 AM 23.0899 -81.8634 217° Southwest  Level FlightAware Approximate
Thu 09:40:00 AM 22.9951 -81.9419 217° Southwest  Level FlightAware Approximate
Thu 09:41:00 AM 22.9003 -82.0203 217° Southwest  Level FlightAware Approximate
Thu 09:42:00 AM 22.8055 -82.0986 217° Southwest  Level FlightAware Approximate
Thu 09:43:00 AM 22.7106 -82.1768 217° Southwest  Level FlightAware Approximate
Thu 09:44:00 AM 22.6157 -82.2548 217° Southwest  Level FlightAware Approximate
Thu 09:45:00 AM 22.5207 -82.3328 217° Southwest  Level FlightAware Approximate
Thu 09:46:00 AM 22.4257 -82.4106 217° Southwest  Level FlightAware Approximate
Thu 09:47:00 AM 22.3307 -82.4884 217° Southwest  Level FlightAware Approximate
Thu 09:48:00 AM 22.2356 -82.5660 217° Southwest  Level FlightAware Approximate
Thu 09:49:00 AM 22.1405 -82.6436 217° Southwest  Level FlightAware Approximate
Thu 09:50:00 AM 22.0453 -82.7210 217° Southwest  Level FlightAware Approximate
Thu 09:51:00 AM 21.9501 -82.7983 217° Southwest  Level FlightAware Approximate
Thu 09:52:00 AM 21.8549 -82.8755 217° Southwest  Level FlightAware Approximate
Thu 09:52:18 AM 21.2900 -83.2630 217° Southwest 493 567 35,000  Level FlightAware ADS-B
Thu 09:54:00 AM 21.1336 -83.4011 219° Southwest  Level FlightAware Approximate
Thu 09:55:00 AM 21.0415 -83.4822 219° Southwest  Level FlightAware Approximate
Thu 09:56:00 AM 20.9494 -83.5632 219° Southwest  Level FlightAware Approximate
Thu 09:57:00 AM 20.8572 -83.6441 219° Southwest  Level FlightAware Approximate
Thu 09:58:00 AM 20.7651 -83.7249 219° Southwest  Level FlightAware Approximate
Thu 09:59:00 AM 20.6728 -83.8055 219° Southwest  Level FlightAware Approximate
Thu 10:00:00 AM 20.5806 -83.8861 219° Southwest  Level FlightAware Approximate
Thu 10:01:00 AM 20.4883 -83.9667 219° Southwest  Level FlightAware Approximate
Thu 10:02:00 AM 20.3955 -84.0482 218° Southwest  Level FlightAware Approximate
Thu 10:03:00 AM 20.3005 -84.1249 215° Southwest  Level FlightAware Approximate
Thu 10:04:00 AM 20.2033 -84.1984 215° Southwest  Level FlightAware Approximate
Thu 10:05:00 AM 20.1061 -84.2718 215° Southwest  Level FlightAware Approximate
Thu 10:06:00 AM 20.0088 -84.3451 215° Southwest  Level FlightAware Approximate
Thu 10:07:00 AM 19.9115 -84.4183 215° Southwest  Level FlightAware Approximate
Thu 10:08:00 AM 19.8142 -84.4914 215° Southwest  Level FlightAware Approximate
Thu 10:09:00 AM 19.7169 -84.5645 215° Southwest  Level FlightAware Approximate
Thu 10:10:00 AM 19.6195 -84.6374 215° Southwest  Level FlightAware Approximate
Thu 10:11:00 AM 19.5221 -84.7103 215° Southwest  Level FlightAware Approximate
Thu 10:12:00 AM 19.4247 -84.7831 215° Southwest  Level FlightAware Approximate
Thu 10:13:00 AM 19.3272 -84.8558 215° Southwest  Level FlightAware Approximate
Thu 10:14:00 AM 19.2297 -84.9284 215° Southwest  Level FlightAware Approximate
Thu 10:15:00 AM 19.1322 -85.0009 215° Southwest  Level FlightAware Approximate
Thu 10:16:00 AM 19.0346 -85.0733 215° Southwest  Level FlightAware Approximate
Thu 10:17:00 AM 18.9370 -85.1457 215° Southwest  Level FlightAware Approximate
Thu 10:18:00 AM 18.8395 -85.2179 215° Southwest  Level FlightAware Approximate
Thu 10:19:00 AM 18.7418 -85.2901 215° Southwest  Level FlightAware Approximate
Thu 10:20:00 AM 18.6442 -85.3622 215° Southwest  Level FlightAware Approximate
Thu 10:21:00 AM 18.5465 -85.4342 215° Southwest  Level FlightAware Approximate
Thu 10:22:00 AM 18.4488 -85.5061 215° Southwest  Level FlightAware Approximate
Thu 10:23:00 AM 18.3510 -85.5780 215° Southwest  Level FlightAware Approximate
Thu 10:24:00 AM 18.2533 -85.6497 215° Southwest  Level FlightAware Approximate
Thu 10:25:00 AM 18.1555 -85.7214 215° Southwest  Level FlightAware Approximate
Thu 10:26:00 AM 18.0576 -85.7931 215° Southwest  Level FlightAware Approximate
Thu 10:27:00 AM 17.9598 -85.8646 215° Southwest  Level FlightAware Approximate
Thu 10:28:00 AM 17.8619 -85.9360 215° Southwest  Level FlightAware Approximate
Thu 10:29:00 AM 17.7640 -86.0074 215° Southwest  Level FlightAware Approximate
Thu 10:30:00 AM 17.6661 -86.0787 215° Southwest  Level FlightAware Approximate
Thu 10:31:00 AM 17.5681 -86.1499 215° Southwest  Level FlightAware Approximate
Thu 10:32:00 AM 17.4701 -86.2210 215° Southwest  Level FlightAware Approximate
Thu 10:33:00 AM 17.3722 -86.2921 215° Southwest  Level FlightAware Approximate
Thu 10:34:00 AM 17.2741 -86.3631 215° Southwest  Level FlightAware Approximate
Thu 10:35:00 AM 17.1713 -86.4215 189° South  Level FlightAware Approximate
Thu 10:36:00 AM 17.0536 -86.4411 189° South  Level FlightAware Approximate
Thu 10:37:00 AM 16.9355 -86.4572 186° South  Level FlightAware Approximate
Thu 10:38:00 AM 16.8170 -86.4704 186° South  Level FlightAware Approximate
Thu 10:39:00 AM 16.6985 -86.4833 180° South  Level FlightAware Approximate
Thu 10:40:00 AM 16.5808 -86.4965 193° South  Level FlightAware Approximate
Thu 10:41:00 AM 16.4622 -86.5065 183° South  Level FlightAware Approximate
Thu 10:42:00 AM 16.3432 -86.5140 183° South  Level FlightAware Approximate
Thu 10:43:00 AM 16.2674 -86.5856 237° Southwest  Level FlightAware Approximate
Thu 10:44:00 AM 16.2024 -86.6897 237° Southwest  Level FlightAware Approximate
Thu 10:45:00 AM 16.1373 -86.7936 237° Southwest  Level FlightAware Approximate
Thu 10:46:00 AM 16.0715 -86.8970 238° Southwest  Level FlightAware Approximate
Thu 10:47:00 AM 16.0078 -87.0017 238° Southwest  Level FlightAware Approximate
Thu 10:48:00 AM 15.9440 -87.1065 238° Southwest  Level FlightAware Approximate
Thu 10:49:00 AM 15.8802 -87.2111 238° Southwest  Level FlightAware Approximate
Thu 10:50:00 AM 15.8170 -87.3161 238° Southwest  Level FlightAware Approximate
Thu 10:51:00 AM 15.7578 -87.4235 237° Southwest  Level FlightAware Approximate
Thu 10:52:00 AM 15.6921 -87.5267 237° Southwest  Level FlightAware Approximate
Thu 10:53:00 AM 15.6251 -87.6291 235° Southwest  Level FlightAware Approximate
Thu 10:54:00 AM 15.5664 -87.7337 235° Southwest  Level FlightAware Approximate
Thu 10:55:00 AM 15.5011 -87.8371 238° Southwest  Level FlightAware Approximate
Thu 10:56:00 AM 15.4526 -87.9236 270° West  Level Estimated
Thu 10:57:00 AM 15.4526 -87.9236 270° West  Level Estimated
Thu 10:58:00 AM 15.4526 -87.9236 270° West  Level Estimated
Thu 10:59:00 AM 15.4526 -87.9236 270° West  Level Estimated
Thu 11:00:00 AM 15.4526 -87.9236 270° West  Level Estimated
Thu 11:01:00 AM 15.4526 -87.9236 270° West  Level Estimated
Thu 11:02:00 AM 15.4526 -87.9236 270° West  Level Estimated
Thu 11:03:00 AM 15.4526 -87.9236 270° West  Level Estimated
Thu 11:04:00 AM 15.4526 -87.9236 270° West  Level Estimated
Thu 11:05:00 AM 15.4526 -87.9236 270° West  Level Estimated
Thu 11:06:00 AM 15.4526 -87.9236 270° West  Level Estimated
Thu 11:07:00 AM 15.4526 -87.9236 270° West  Level Estimated
Thu 11:08:00 AM 15.4526 -87.9236 270° West  Level Estimated
Thu 11:09:00 AM 15.4526 -87.9236 270° West  Level Estimated
Thu 11:10:00 AM 15.4526 -87.9236 270° West  Level Estimated
Thu 11:11:00 AM 15.4526 -87.9236 270° West  Level Estimated
Thu 11:12:00 AM 15.4526 -87.9236 270° West  Level Estimated
Thu 11:13:00 AM 15.4526 -87.9236 270° West  Level Estimated
Thu 11:14:00 AM 15.4526 -87.9236 270° West  Level Estimated

Login

Don't have an account? Register now (free) for customized features, flight alerts, and more!